sensor_id;sensor_type;location;lat;lon;timestamp;pressure;altitude;pressure_sealevel;temperature;humidity
70072;BME280;57434;42.794;23.302;2022-08-21T10:49:17;94694.19;;;25.05;50.93
70072;BME280;57434;42.794;23.302;2022-08-21T10:52:21;94976.94;;;28.27;48.45
70072;BME280;57434;42.794;23.302;2022-08-21T10:58:12;94971.66;;;27.42;48.14
70072;BME280;57434;42.794;23.302;2022-08-21T11:07:32;94729.66;;;26.95;46.79
70072;BME280;57434;42.794;23.302;2022-08-21T11:10:37;94954.13;;;28.31;45.80
70072;BME280;57434;42.794;23.302;2022-08-21T11:16:29;94947.81;;;28.58;45.05
70072;BME280;57434;42.794;23.302;2022-08-21T11:21:56;94882.22;;;27.40;47.09
70072;BME280;57434;42.794;23.302;2022-08-21T11:25:06;94933.22;;;28.68;47.81
70072;BME280;57434;42.794;23.302;2022-08-21T11:34:05;94891.53;;;28.46;44.40
70072;BME280;57434;42.794;23.302;2022-08-21T11:43:12;94701.16;;;26.20;47.16
70072;BME280;57434;42.794;23.302;2022-08-21T11:45:50;94919.66;;;28.22;45.43
70072;BME280;57434;42.794;23.302;2022-08-21T11:48:40;94750.38;;;27.87;43.82
70072;BME280;57434;42.794;23.302;2022-08-21T11:51:22;94722.53;;;26.73;45.29
70072;BME280;57434;42.794;23.302;2022-08-21T11:56:55;94871.69;;;28.52;45.16
70072;BME280;57434;42.794;23.302;2022-08-21T12:00:05;94931.34;;;28.73;43.93
70072;BME280;57434;42.794;23.302;2022-08-21T12:02:28;94820.69;;;27.82;44.11
70072;BME280;57434;42.794;23.302;2022-08-21T12:05:04;94820.56;;;27.10;45.54
70072;BME280;57434;42.794;23.302;2022-08-21T12:07:59;94918.91;;;27.51;45.78
70072;BME280;57434;42.794;23.302;2022-08-21T12:10:18;94876.34;;;26.93;46.51
70072;BME280;57434;42.794;23.302;2022-08-21T12:12:48;94642.00;;;25.18;46.56
70072;BME280;57434;42.794;23.302;2022-08-21T12:15:49;94632.56;;;25.06;47.21
70072;BME280;57434;42.794;23.302;2022-08-21T12:18:30;94753.59;;;26.30;47.41
70072;BME280;57434;42.794;23.302;2022-08-21T12:21:20;94766.59;;;25.77;47.45
70072;BME280;57434;42.794;23.302;2022-08-21T12:24:27;94730.97;;;25.49;48.01
70072;BME280;57434;42.794;23.302;2022-08-21T12:30:05;94750.50;;;25.62;48.08
70072;BME280;57434;42.794;23.302;2022-08-21T12:38:29;94863.44;;;25.86;49.51
70072;BME280;57434;42.794;23.302;2022-08-21T12:41:01;94816.38;;;25.48;49.76
70072;BME280;57434;42.794;23.302;2022-08-21T12:43:35;94912.22;;;26.05;49.88
70072;BME280;57434;42.794;23.302;2022-08-21T12:46:03;94798.31;;;25.26;49.69
70072;BME280;57434;42.794;23.302;2022-08-21T12:50:56;94913.94;;;25.89;51.14
70072;BME280;57434;42.794;23.302;2022-08-21T12:53:33;94882.72;;;25.74;50.87
70072;BME280;57434;42.794;23.302;2022-08-21T12:56:03;94905.16;;;26.18;49.87
70072;BME280;57434;42.794;23.302;2022-08-21T12:58:44;94666.06;;;23.91;51.27
70072;BME280;57434;42.794;23.302;2022-08-21T13:01:39;94704.41;;;23.86;51.35
70072;BME280;57434;42.794;23.302;2022-08-21T13:04:15;94622.63;;;23.25;52.54
70072;BME280;57434;42.794;23.302;2022-08-21T13:06:54;94900.44;;;25.39;53.37
70072;BME280;57434;42.794;23.302;2022-08-21T13:09:30;94847.59;;;25.23;52.85
70072;BME280;57434;42.794;23.302;2022-08-21T13:12:06;94835.50;;;24.74;53.32
70072;BME280;57434;42.794;23.302;2022-08-21T13:14:39;94723.69;;;23.85;53.55
70072;BME280;57434;42.794;23.302;2022-08-21T13:17:31;94897.00;;;25.21;53.60
70072;BME280;57434;42.794;23.302;2022-08-21T13:20:04;94904.19;;;24.91;54.41
70072;BME280;57434;42.794;23.302;2022-08-21T13:25:38;94811.16;;;24.15;53.69
70072;BME280;57434;42.794;23.302;2022-08-21T13:28:11;94560.84;;;22.74;52.41
70072;BME280;57434;42.794;23.302;2022-08-21T13:30:44;94692.47;;;23.22;53.09
70072;BME280;57434;42.794;23.302;2022-08-21T13:33:17;94734.25;;;24.12;53.30
70072;BME280;57434;42.794;23.302;2022-08-21T13:35:58;94775.88;;;24.73;53.85
70072;BME280;57434;42.794;23.302;2022-08-21T13:38:39;94662.78;;;23.85;52.04
70072;BME280;57434;42.794;23.302;2022-08-21T13:43:46;94732.31;;;24.65;51.20
70072;BME280;57434;42.794;23.302;2022-08-21T13:46:13;94752.22;;;24.62;51.51
70072;BME280;57434;42.794;23.302;2022-08-21T13:48:41;94865.91;;;25.80;52.13
70072;BME280;57434;42.794;23.302;2022-08-21T13:51:08;94698.53;;;24.84;51.11
70072;BME280;57434;42.794;23.302;2022-08-21T13:53:44;94870.09;;;26.31;50.47
70072;BME280;57434;42.794;23.302;2022-08-21T13:58:53;94857.59;;;26.26;50.73
70072;BME280;57434;42.794;23.302;2022-08-21T14:01:33;94853.88;;;26.14;51.02
70072;BME280;57434;42.794;23.302;2022-08-21T14:06:43;94813.88;;;25.54;53.14
70072;BME280;57434;42.794;23.302;2022-08-21T14:09:20;94649.41;;;24.28;52.86
70072;BME280;57434;42.794;23.302;2022-08-21T14:11:51;94736.97;;;24.70;54.20
70072;BME280;57434;42.794;23.302;2022-08-21T14:14:37;94609.75;;;23.74;53.51
70072;BME280;57434;42.794;23.302;2022-08-21T14:17:14;94853.56;;;25.46;54.26
70072;BME280;57434;42.794;23.302;2022-08-21T14:19:53;94866.72;;;25.40;53.97
70072;BME280;57434;42.794;23.302;2022-08-21T14:25:39;94480.44;;;23.18;53.87
70072;BME280;57434;42.794;23.302;2022-08-21T14:28:37;94688.41;;;24.52;53.55
70072;BME280;57434;42.794;23.302;2022-08-21T14:34:15;94615.78;;;23.69;53.22
70072;BME280;57434;42.794;23.302;2022-08-21T14:37:25;94650.19;;;24.59;52.95
70072;BME280;57434;42.794;23.302;2022-08-21T14:43:48;94527.78;;;24.62;49.21
70072;BME280;57434;42.794;23.302;2022-08-21T14:46:33;94656.38;;;25.72;49.59
70072;BME280;57434;42.794;23.302;2022-08-21T14:49:14;94681.91;;;25.56;50.00
70072;BME280;57434;42.794;23.302;2022-08-21T14:54:57;94517.50;;;22.96;52.54
70072;BME280;57434;42.794;23.302;2022-08-21T14:57:38;94725.66;;;24.62;53.15
70072;BME280;57434;42.794;23.302;2022-08-21T15:00:05;94710.06;;;24.24;52.42
70072;BME280;57434;42.794;23.302;2022-08-21T15:02:54;94437.75;;;22.33;53.30
70072;BME280;57434;42.794;23.302;2022-08-21T15:05:23;94677.06;;;23.94;53.79
70072;BME280;57434;42.794;23.302;2022-08-21T15:08:00;94599.88;;;23.27;53.97
70072;BME280;57434;42.794;23.302;2022-08-21T15:10:53;94538.88;;;22.95;53.53
70072;BME280;57434;42.794;23.302;2022-08-21T15:13:22;94657.03;;;24.45;55.15
70072;BME280;57434;42.794;23.302;2022-08-21T15:15:49;94731.88;;;24.49;53.73
70072;BME280;57434;42.794;23.302;2022-08-21T15:18:38;94634.06;;;23.44;53.72
70072;BME280;57434;42.794;23.302;2022-08-21T15:21:10;94850.25;;;25.40;54.25
70072;BME280;57434;42.794;23.302;2022-08-21T15:23:36;94837.88;;;25.38;53.03
70072;BME280;57434;42.794;23.302;2022-08-21T15:26:04;94549.47;;;23.72;52.81
70072;BME280;57434;42.794;23.302;2022-08-21T15:28:31;94361.34;;;22.34;53.23
70072;BME280;57434;42.794;23.302;2022-08-21T15:31:11;94662.66;;;24.43;54.35
70072;BME280;57434;42.794;23.302;2022-08-21T15:33:51;94548.53;;;23.29;53.80
70072;BME280;57434;42.794;23.302;2022-08-21T15:36:21;94702.66;;;24.31;55.68
70072;BME280;57434;42.794;23.302;2022-08-21T15:41:55;94672.13;;;23.95;55.87
70072;BME280;57434;42.794;23.302;2022-08-21T15:44:25;94511.97;;;22.79;55.68
70072;BME280;57434;42.794;23.302;2022-08-21T15:46:58;94571.69;;;23.23;55.81
70072;BME280;57434;42.794;23.302;2022-08-21T15:49:33;94726.19;;;24.39;55.90
70072;BME280;57434;42.794;23.302;2022-08-21T15:52:09;94407.50;;;22.40;56.29
70072;BME280;57434;42.794;23.302;2022-08-21T15:54:46;94426.16;;;22.41;55.71
70072;BME280;57434;42.794;23.302;2022-08-21T15:57:26;94437.13;;;21.96;56.71
70072;BME280;57434;42.794;23.302;2022-08-21T16:00:17;94716.91;;;24.00;56.50
70072;BME280;57434;42.794;23.302;2022-08-21T16:02:46;94733.34;;;24.00;56.98
70072;BME280;57434;42.794;23.302;2022-08-21T16:05:15;94803.69;;;24.70;56.88
70072;BME280;57434;42.794;23.302;2022-08-21T16:07:43;94679.69;;;23.81;57.40
70072;BME280;57434;42.794;23.302;2022-08-21T16:10:09;94811.09;;;24.54;57.13
70072;BME280;57434;42.794;23.302;2022-08-21T16:12:43;94688.72;;;23.77;58.14
70072;BME280;57434;42.794;23.302;2022-08-21T16:15:11;94817.53;;;24.83;57.20
70072;BME280;57434;42.794;23.302;2022-08-21T16:17:39;94834.28;;;24.87;57.62
70072;BME280;57434;42.794;23.302;2022-08-21T16:20:08;94691.88;;;23.72;58.24
70072;BME280;57434;42.794;23.302;2022-08-21T16:22:38;94727.47;;;23.88;57.39
70072;BME280;57434;42.794;23.302;2022-08-21T16:25:05;94804.66;;;24.24;57.12
70072;BME280;57434;42.794;23.302;2022-08-21T16:27:32;94853.94;;;24.61;57.46
70072;BME280;57434;42.794;23.302;2022-08-21T16:29:59;94762.00;;;23.80;57.90
70072;BME280;57434;42.794;23.302;2022-08-21T16:32:25;94753.38;;;23.90;57.01
70072;BME280;57434;42.794;23.302;2022-08-21T16:34:51;94854.84;;;24.54;57.74
70072;BME280;57434;42.794;23.302;2022-08-21T16:37:18;94842.50;;;24.33;58.40
70072;BME280;57434;42.794;23.302;2022-08-21T16:39:44;94693.06;;;23.01;58.53
70072;BME280;57434;42.794;23.302;2022-08-21T16:42:13;94697.84;;;22.99;58.34
70072;BME280;57434;42.794;23.302;2022-08-21T16:44:41;94803.72;;;23.54;59.24
70072;BME280;57434;42.794;23.302;2022-08-21T16:47:07;94748.97;;;22.75;60.32
70072;BME280;57434;42.794;23.302;2022-08-21T16:49:33;94765.06;;;22.80;59.78
70072;BME280;57434;42.794;23.302;2022-08-21T16:51:59;94739.34;;;22.80;59.48
70072;BME280;57434;42.794;23.302;2022-08-21T16:54:25;94764.88;;;23.05;59.83
70072;BME280;57434;42.794;23.302;2022-08-21T16:56:51;94773.59;;;23.07;59.69
70072;BME280;57434;42.794;23.302;2022-08-21T16:59:17;94864.19;;;23.78;61.65
70072;BME280;57434;42.794;23.302;2022-08-21T17:01:43;94850.75;;;23.61;59.51
70072;BME280;57434;42.794;23.302;2022-08-21T17:04:10;94779.78;;;23.04;59.39
70072;BME280;57434;42.794;23.302;2022-08-21T17:06:38;94591.06;;;21.31;60.12
70072;BME280;57434;42.794;23.302;2022-08-21T17:09:04;94783.59;;;22.79;61.88
70072;BME280;57434;42.794;23.302;2022-08-21T17:11:45;94888.91;;;23.27;63.41
70072;BME280;57434;42.794;23.302;2022-08-21T17:14:19;94810.00;;;22.60;63.83
70072;BME280;57434;42.794;23.302;2022-08-21T17:16:48;94847.75;;;22.59;63.36
70072;BME280;57434;42.794;23.302;2022-08-21T17:19:16;94806.81;;;22.56;63.10
70072;BME280;57434;42.794;23.302;2022-08-21T17:21:42;94705.38;;;21.77;63.18
70072;BME280;57434;42.794;23.302;2022-08-21T17:24:11;94522.44;;;20.50;63.37
70072;BME280;57434;42.794;23.302;2022-08-21T17:26:41;94711.63;;;21.66;63.86
70072;BME280;57434;42.794;23.302;2022-08-21T17:29:07;94961.28;;;23.20;64.18
70072;BME280;57434;42.794;23.302;2022-08-21T17:31:44;94835.09;;;22.79;64.85
70072;BME280;57434;42.794;23.302;2022-08-21T17:34:10;94910.97;;;23.17;64.56
70072;BME280;57434;42.794;23.302;2022-08-21T17:36:37;94915.50;;;23.20;65.36
70072;BME280;57434;42.794;23.302;2022-08-21T17:39:03;94921.06;;;23.18;65.35
70072;BME280;57434;42.794;23.302;2022-08-21T17:41:29;94834.78;;;22.58;65.15
70072;BME280;57434;42.794;23.302;2022-08-21T17:43:55;94913.19;;;23.09;63.51
70072;BME280;57434;42.794;23.302;2022-08-21T17:46:25;94824.38;;;22.53;65.80
70072;BME280;57434;42.794;23.302;2022-08-21T17:48:51;94808.28;;;22.30;66.02
70072;BME280;57434;42.794;23.302;2022-08-21T17:51:18;94941.50;;;23.05;66.16
70072;BME280;57434;42.794;23.302;2022-08-21T17:53:44;94858.19;;;22.29;66.20
70072;BME280;57434;42.794;23.302;2022-08-21T17:56:13;94842.00;;;22.15;66.78
70072;BME280;57434;42.794;23.302;2022-08-21T17:58:48;94952.38;;;22.89;67.23
70072;BME280;57434;42.794;23.302;2022-08-21T18:01:14;94941.69;;;22.89;67.17
70072;BME280;57434;42.794;23.302;2022-08-21T18:03:40;94856.97;;;22.23;66.43
70072;BME280;57434;42.794;23.302;2022-08-21T18:06:06;94884.66;;;22.30;66.75
70072;BME280;57434;42.794;23.302;2022-08-21T18:08:33;94961.44;;;22.95;66.06
70072;BME280;57434;42.794;23.302;2022-08-21T18:10:59;94870.06;;;22.26;67.68
70072;BME280;57434;42.794;23.302;2022-08-21T18:13:29;94868.28;;;22.30;68.06
70072;BME280;57434;42.794;23.302;2022-08-21T18:15:57;94825.28;;;21.77;67.89
70072;BME280;57434;42.794;23.302;2022-08-21T18:18:25;94964.38;;;22.60;68.98
70072;BME280;57434;42.794;23.302;2022-08-21T18:20:52;94869.00;;;21.87;69.71
70072;BME280;57434;42.794;23.302;2022-08-21T18:23:20;94903.34;;;21.97;69.59
70072;BME280;57434;42.794;23.302;2022-08-21T18:25:49;94828.91;;;21.18;71.52
70072;BME280;57434;42.794;23.302;2022-08-21T18:28:15;94851.88;;;21.45;72.23
70072;BME280;57434;42.794;23.302;2022-08-21T18:30:42;94962.59;;;22.13;71.97
70072;BME280;57434;42.794;23.302;2022-08-21T18:33:12;94804.06;;;20.86;70.41
70072;BME280;57434;42.794;23.302;2022-08-21T18:35:42;94680.25;;;20.30;70.04
70072;BME280;57434;42.794;23.302;2022-08-21T18:38:15;94705.50;;;20.33;70.28
70072;BME280;57434;42.794;23.302;2022-08-21T18:40:47;94816.25;;;21.11;69.96
70072;BME280;57434;42.794;23.302;2022-08-21T18:43:18;94717.16;;;20.12;71.60
70072;BME280;57434;42.794;23.302;2022-08-21T18:45:45;95000.16;;;21.60;72.98
70072;BME280;57434;42.794;23.302;2022-08-21T18:48:12;94515.59;;;18.48;72.95
70072;BME280;57434;42.794;23.302;2022-08-21T18:50:49;94516.41;;;18.41;73.19
70072;BME280;57434;42.794;23.302;2022-08-21T18:53:16;94575.19;;;18.71;74.65
70072;BME280;57434;42.794;23.302;2022-08-21T18:55:53;94695.53;;;19.44;75.06
70072;BME280;57434;42.794;23.302;2022-08-21T18:58:19;94839.44;;;20.50;76.23
70072;BME280;57434;42.794;23.302;2022-08-21T19:00:49;94959.91;;;21.48;76.44
70072;BME280;57434;42.794;23.302;2022-08-21T19:03:19;94917.84;;;21.24;75.87
70072;BME280;57434;42.794;23.302;2022-08-21T19:05:46;94975.44;;;21.55;76.30
70072;BME280;57434;42.794;23.302;2022-08-21T19:08:14;94974.06;;;21.39;76.87
70072;BME280;57434;42.794;23.302;2022-08-21T19:10:42;94968.22;;;21.29;77.37
70072;BME280;57434;42.794;23.302;2022-08-21T19:13:11;94853.94;;;20.37;76.34
70072;BME280;57434;42.794;23.302;2022-08-21T19:15:40;94873.72;;;20.68;75.44
70072;BME280;57434;42.794;23.302;2022-08-21T19:18:10;94978.19;;;21.45;75.72
70072;BME280;57434;42.794;23.302;2022-08-21T19:20:36;94931.09;;;21.12;75.40
70072;BME280;57434;42.794;23.302;2022-08-21T19:23:09;94991.25;;;21.56;73.49
70072;BME280;57434;42.794;23.302;2022-08-21T19:25:36;95003.91;;;21.70;73.57
70072;BME280;57434;42.794;23.302;2022-08-21T19:28:05;94994.28;;;21.58;71.76
70072;BME280;57434;42.794;23.302;2022-08-21T19:30:36;94863.63;;;20.42;71.81
70072;BME280;57434;42.794;23.302;2022-08-21T19:33:02;94881.09;;;20.38;72.77
70072;BME280;57434;42.794;23.302;2022-08-21T19:35:28;94991.50;;;20.78;73.41
70072;BME280;57434;42.794;23.302;2022-08-21T19:37:54;94898.44;;;20.17;73.35
70072;BME280;57434;42.794;23.302;2022-08-21T19:40:19;94962.47;;;20.64;74.82
70072;BME280;57434;42.794;23.302;2022-08-21T19:42:46;94997.34;;;20.87;73.22
70072;BME280;57434;42.794;23.302;2022-08-21T19:45:12;94905.88;;;20.13;73.56
70072;BME280;57434;42.794;23.302;2022-08-21T19:47:45;94968.63;;;20.53;74.38
70072;BME280;57434;42.794;23.302;2022-08-21T19:50:12;94937.38;;;20.22;75.94
70072;BME280;57434;42.794;23.302;2022-08-21T19:52:37;94987.72;;;20.68;76.13
70072;BME280;57434;42.794;23.302;2022-08-21T19:55:05;94915.91;;;20.29;77.80
70072;BME280;57434;42.794;23.302;2022-08-21T19:57:33;94885.13;;;19.72;76.28
70072;BME280;57434;42.794;23.302;2022-08-21T20:00:00;95001.81;;;20.66;77.33
70072;BME280;57434;42.794;23.302;2022-08-21T20:02:26;94788.09;;;19.07;76.16
70072;BME280;57434;42.794;23.302;2022-08-21T20:04:52;94879.03;;;19.68;78.30
70072;BME280;57434;42.794;23.302;2022-08-21T20:07:18;95018.22;;;20.42;77.18
70072;BME280;57434;42.794;23.302;2022-08-21T20:09:43;95028.16;;;20.26;77.19
70072;BME280;57434;42.794;23.302;2022-08-21T20:12:11;95001.16;;;20.12;78.84
70072;BME280;57434;42.794;23.302;2022-08-21T20:14:46;95008.53;;;20.38;78.43
70072;BME280;57434;42.794;23.302;2022-08-21T20:17:15;94998.72;;;20.23;78.17
70072;BME280;57434;42.794;23.302;2022-08-21T20:19:43;94981.97;;;20.20;79.63
70072;BME280;57434;42.794;23.302;2022-08-21T20:22:09;95003.63;;;20.08;80.24
70072;BME280;57434;42.794;23.302;2022-08-21T20:24:37;94950.00;;;19.58;80.96
70072;BME280;57434;42.794;23.302;2022-08-21T20:27:04;94918.13;;;19.52;80.62
70072;BME280;57434;42.794;23.302;2022-08-21T20:29:30;94893.69;;;19.42;79.50
70072;BME280;57434;42.794;23.302;2022-08-21T20:31:57;95014.78;;;20.44;78.81
70072;BME280;57434;42.794;23.302;2022-08-21T20:34:23;94968.38;;;19.95;79.44
70072;BME280;57434;42.794;23.302;2022-08-21T20:36:49;94956.44;;;19.59;80.26
70072;BME280;57434;42.794;23.302;2022-08-21T20:39:15;94882.69;;;19.38;79.26
70072;BME280;57434;42.794;23.302;2022-08-21T20:41:41;94997.59;;;19.96;80.33
70072;BME280;57434;42.794;23.302;2022-08-21T20:44:11;94971.94;;;19.05;83.52
70072;BME280;57434;42.794;23.302;2022-08-21T20:46:38;95049.19;;;19.54;84.31
70072;BME280;57434;42.794;23.302;2022-08-21T20:49:04;95047.16;;;19.78;84.88
70072;BME280;57434;42.794;23.302;2022-08-21T20:51:39;95013.00;;;19.78;85.72
70072;BME280;57434;42.794;23.302;2022-08-21T20:56:44;95010.69;;;19.38;86.54
70072;BME280;57434;42.794;23.302;2022-08-21T21:02:21;95017.84;;;19.32;86.80
70072;BME280;57434;42.794;23.302;2022-08-21T21:08:23;95033.09;;;19.72;85.35
70072;BME280;57434;42.794;23.302;2022-08-21T21:10:48;95034.91;;;19.24;84.91
70072;BME280;57434;42.794;23.302;2022-08-21T21:13:20;94956.16;;;18.81;84.27
70072;BME280;57434;42.794;23.302;2022-08-21T21:15:52;94903.75;;;18.38;83.69
70072;BME280;57434;42.794;23.302;2022-08-21T21:18:33;95038.88;;;19.13;86.33
70072;BME280;57434;42.794;23.302;2022-08-21T21:21:07;95039.53;;;19.42;86.37
70072;BME280;57434;42.794;23.302;2022-08-21T21:23:40;95027.13;;;19.32;86.29
70072;BME280;57434;42.794;23.302;2022-08-21T21:26:17;94908.19;;;18.18;86.18
70072;BME280;57434;42.794;23.302;2022-08-21T21:28:55;94993.53;;;18.92;86.42
70072;BME280;57434;42.794;23.302;2022-08-21T21:31:26;94947.59;;;18.73;86.75
70072;BME280;57434;42.794;23.302;2022-08-21T21:33:52;94866.06;;;17.86;86.16
70072;BME280;57434;42.794;23.302;2022-08-21T21:36:41;94938.00;;;17.97;85.84
70072;BME280;57434;42.794;23.302;2022-08-21T21:39:23;95032.63;;;19.22;85.54
70072;BME280;57434;42.794;23.302;2022-08-21T21:45:02;95025.97;;;19.12;83.79
70072;BME280;57434;42.794;23.302;2022-08-21T21:50:45;94907.88;;;18.30;84.50
70072;BME280;57434;42.794;23.302;2022-08-21T21:56:44;95030.69;;;19.10;86.87
70072;BME280;57434;42.794;23.302;2022-08-21T22:01:56;94936.94;;;18.51;84.84
70072;BME280;57434;42.794;23.302;2022-08-21T22:04:51;95026.00;;;19.20;85.91
70072;BME280;57434;42.794;23.302;2022-08-21T22:07:39;94931.75;;;18.34;85.76
70072;BME280;57434;42.794;23.302;2022-08-21T22:10:17;95040.88;;;18.90;86.38
70072;BME280;57434;42.794;23.302;2022-08-21T22:15:11;94950.78;;;18.18;87.69
70072;BME280;57434;42.794;23.302;2022-08-21T22:17:48;94838.28;;;17.28;88.03
70072;BME280;57434;42.794;23.302;2022-08-21T22:20:47;94934.72;;;17.85;87.97
70072;BME280;57434;42.794;23.302;2022-08-21T22:23:18;94922.72;;;17.71;88.83
70072;BME280;57434;42.794;23.302;2022-08-21T22:25:49;95024.44;;;18.52;89.47
70072;BME280;57434;42.794;23.302;2022-08-21T22:28:19;95035.84;;;18.60;89.45
70072;BME280;57434;42.794;23.302;2022-08-21T22:33:26;94841.19;;;17.43;88.37
70072;BME280;57434;42.794;23.302;2022-08-21T22:35:55;95020.91;;;18.67;88.24
70072;BME280;57434;42.794;23.302;2022-08-21T22:41:07;94942.03;;;18.09;87.70
70072;BME280;57434;42.794;23.302;2022-08-21T22:43:33;94976.91;;;18.53;88.53
70072;BME280;57434;42.794;23.302;2022-08-21T22:46:05;94880.47;;;17.60;88.26
70072;BME280;57434;42.794;23.302;2022-08-21T22:48:36;94985.16;;;18.43;87.07
70072;BME280;57434;42.794;23.302;2022-08-21T22:51:22;95012.03;;;18.78;87.12
70072;BME280;57434;42.794;23.302;2022-08-21T22:53:52;94880.00;;;17.77;86.14
70072;BME280;57434;42.794;23.302;2022-08-21T22:57:26;94971.25;;;18.60;84.82
70072;BME280;57434;42.794;23.302;2022-08-21T23:00:08;94905.03;;;17.86;85.07
70072;BME280;57434;42.794;23.302;2022-08-21T23:05:19;95019.53;;;18.60;84.98
70072;BME280;57434;42.794;23.302;2022-08-21T23:07:47;95020.50;;;18.63;85.63
70072;BME280;57434;42.794;23.302;2022-08-21T23:10:40;95008.78;;;18.67;86.21
70072;BME280;57434;42.794;23.302;2022-08-21T23:13:10;94896.63;;;17.73;85.82
70072;BME280;57434;42.794;23.302;2022-08-21T23:21:19;95007.38;;;18.52;86.43
70072;BME280;57434;42.794;23.302;2022-08-21T23:26:40;95015.06;;;18.44;86.45
70072;BME280;57434;42.794;23.302;2022-08-21T23:35:26;94890.63;;;17.27;86.92
70072;BME280;57434;42.794;23.302;2022-08-21T23:49:02;94802.28;;;16.45;86.46
70072;BME280;57434;42.794;23.302;2022-08-21T23:52:02;95007.97;;;17.94;86.53
70072;BME280;57434;42.794;23.302;2022-08-21T23:55:12;95002.28;;;17.94;86.62
70072;BME280;57434;42.794;23.302;2022-08-21T23:57:46;95010.19;;;17.88;86.70
